<?xml version="1.0" encoding="UTF-8" standalone="no" ?>
<gpx xmlns="http://www.topografix.com/GPX/1/1" xmlns:xsi="http://www.w3.org/2001/XMLSchema-instance" xsi:schemaLocation="http://www.topografix.com/GPX/1/1 http://www.topografix.com/GPX/1/1/gpx.xsd" version="1.1" creator="VisuGPX - https://www.visugpx.com">
  <metadata>
    <name>Le Rostu au c?ur des marais salants du Mes</name>
  </metadata>
  <wpt lat="47.40993" lon="-2.442">
    <ele>3</ele>
    <name><![CDATA[Parking de la Salorge]]></name>
  </wpt>
  <wpt lat="47.41152" lon="-2.44109">
    <ele>2</ele>
    <name><![CDATA[Croisement de la boucle]]></name>
  </wpt>
  <wpt lat="47.41114" lon="-2.43451">
    <ele>2.1</ele>
    <name><![CDATA[Les Pêcheries]]></name>
  </wpt>
  <wpt lat="47.41118" lon="-2.43546">
    <ele>-1</ele>
    <name><![CDATA[Vanne d'étier]]></name>
  </wpt>
  <wpt lat="47.41139" lon="-2.43541">
    <ele>2</ele>
    <name><![CDATA[sentier vers la vanne]]></name>
  </wpt>
  <wpt lat="47.41374" lon="-2.43599">
    <ele>2</ele>
    <name><![CDATA[Gravière aux gravelots]]></name>
  </wpt>
  <wpt lat="47.41162" lon="-2.44134">
    <ele>2</ele>
    <name><![CDATA[ile de Rostu]]></name>
  </wpt>
  <wpt lat="47.41261" lon="-2.44259">
    <ele>3</ele>
    <name><![CDATA[Île de Rostu]]></name>
  </wpt>
  <wpt lat="47.40685" lon="-2.44786">
    <ele>4</ele>
    <name><![CDATA[4]]></name>
  </wpt>
  <wpt lat="47.40918" lon="-2.45679">
    <ele>2</ele>
    <name><![CDATA[Observatoire d'oiseaux]]></name>
  </wpt>
  <wpt lat="47.40424" lon="-2.45157">
    <ele>15</ele>
    <name><![CDATA[Ruse du Moello]]></name>
  </wpt>
  <wpt lat="47.40371" lon="-2.44429">
    <ele>3</ele>
    <name><![CDATA[Vasière de la Chouette]]></name>
  </wpt>
  <wpt lat="47.40778" lon="-2.44221">
    <ele>5</ele>
    <name><![CDATA[Rue de Rostu]]></name>
  </wpt>
  <wpt lat="47.40988" lon="-2.44196">
    <ele>3</ele>
    <name><![CDATA[Parking de la Salorge]]></name>
  </wpt>
  <trk>
    <name><![CDATA[Le Rostu au cœur des marais salants du Mes]]></name>
    <trkseg>
      <trkpt lat="47.40993" lon="-2.442">
        <ele>3</ele>
        <time>2021-07-21T17:19:01+02:00</time>
      </trkpt>
      <trkpt lat="47.41001" lon="-2.44201">
        <ele>3</ele>
        <time>2021-07-21T17:19:17+02:00</time>
      </trkpt>
      <trkpt lat="47.41043" lon="-2.442">
        <ele>3</ele>
        <time>2021-07-21T17:19:35+02:00</time>
      </trkpt>
      <trkpt lat="47.41068" lon="-2.44206">
        <ele>3</ele>
        <time>2021-07-21T17:19:51+02:00</time>
      </trkpt>
      <trkpt lat="47.4109" lon="-2.44207">
        <ele>3</ele>
        <time>2021-07-21T17:20:10+02:00</time>
      </trkpt>
      <trkpt lat="47.41109" lon="-2.44188">
        <ele>3</ele>
        <time>2021-07-21T17:20:36+02:00</time>
      </trkpt>
      <trkpt lat="47.41124" lon="-2.4416">
        <ele>3</ele>
        <time>2021-07-21T17:20:52+02:00</time>
      </trkpt>
      <trkpt lat="47.4114" lon="-2.4413">
        <ele>3</ele>
        <time>2021-07-21T17:21:17+02:00</time>
      </trkpt>
      <trkpt lat="47.41152" lon="-2.44109">
        <ele>2</ele>
        <time>2021-07-21T17:21:34+02:00</time>
      </trkpt>
      <trkpt lat="47.41142" lon="-2.44064">
        <ele>2</ele>
        <time>2021-07-21T17:21:51+02:00</time>
      </trkpt>
      <trkpt lat="47.41131" lon="-2.44033">
        <ele>2</ele>
        <time>2021-07-21T17:22:09+02:00</time>
      </trkpt>
      <trkpt lat="47.41121" lon="-2.44003">
        <ele>2</ele>
        <time>2021-07-21T17:22:26+02:00</time>
      </trkpt>
      <trkpt lat="47.41111" lon="-2.43972">
        <ele>3</ele>
        <time>2021-07-21T17:22:51+02:00</time>
      </trkpt>
      <trkpt lat="47.41101" lon="-2.43941">
        <ele>2</ele>
        <time>2021-07-21T17:23:09+02:00</time>
      </trkpt>
      <trkpt lat="47.41093" lon="-2.43907">
        <ele>2</ele>
        <time>2021-07-21T17:23:25+02:00</time>
      </trkpt>
      <trkpt lat="47.4109" lon="-2.43874">
        <ele>2</ele>
        <time>2021-07-21T17:23:42+02:00</time>
      </trkpt>
      <trkpt lat="47.41086" lon="-2.43841">
        <ele>3</ele>
        <time>2021-07-21T17:23:59+02:00</time>
      </trkpt>
      <trkpt lat="47.41081" lon="-2.43808">
        <ele>3</ele>
        <time>2021-07-21T17:24:16+02:00</time>
      </trkpt>
      <trkpt lat="47.41074" lon="-2.43777">
        <ele>2</ele>
        <time>2021-07-21T17:24:31+02:00</time>
      </trkpt>
      <trkpt lat="47.41066" lon="-2.43744">
        <ele>2</ele>
        <time>2021-07-21T17:24:48+02:00</time>
      </trkpt>
      <trkpt lat="47.41056" lon="-2.43715">
        <ele>2</ele>
        <time>2021-07-21T17:25:05+02:00</time>
      </trkpt>
      <trkpt lat="47.41035" lon="-2.437">
        <ele>2</ele>
        <time>2021-07-21T17:25:21+02:00</time>
      </trkpt>
      <trkpt lat="47.41031" lon="-2.43667">
        <ele>2</ele>
        <time>2021-07-21T17:25:38+02:00</time>
      </trkpt>
      <trkpt lat="47.41052" lon="-2.43653">
        <ele>2</ele>
        <time>2021-07-21T17:25:56+02:00</time>
      </trkpt>
      <trkpt lat="47.41074" lon="-2.43646">
        <ele>2</ele>
        <time>2021-07-21T17:26:12+02:00</time>
      </trkpt>
      <trkpt lat="47.41097" lon="-2.43637">
        <ele>3</ele>
        <time>2021-07-21T17:26:30+02:00</time>
      </trkpt>
      <trkpt lat="47.41113" lon="-2.43612">
        <ele>3</ele>
        <time>2021-07-21T17:26:48+02:00</time>
      </trkpt>
      <trkpt lat="47.4112" lon="-2.43579">
        <ele>2</ele>
        <time>2021-07-21T17:27:04+02:00</time>
      </trkpt>
      <trkpt lat="47.41119" lon="-2.43546">
        <ele>2</ele>
        <time>2021-07-21T17:27:22+02:00</time>
      </trkpt>
      <trkpt lat="47.41112" lon="-2.43513">
        <ele>2</ele>
        <time>2021-07-21T17:28:08+02:00</time>
      </trkpt>
      <trkpt lat="47.41104" lon="-2.43486">
        <ele>2.5</ele>
      </trkpt>
      <trkpt lat="47.41114" lon="-2.43451">
        <ele>2.1</ele>
        <time>2021-07-21T17:28:25+02:00</time>
      </trkpt>
      <trkpt lat="47.41104" lon="-2.43487">
        <ele>2.5</ele>
      </trkpt>
      <trkpt lat="47.41112" lon="-2.43513">
        <ele>2.5</ele>
        <time>2021-07-21T17:29:13+02:00</time>
      </trkpt>
      <trkpt lat="47.41118" lon="-2.43546">
        <ele>-1</ele>
        <time>2021-07-21T17:29:29+02:00</time>
      </trkpt>
      <trkpt lat="47.41139" lon="-2.43541">
        <ele>2</ele>
        <time>2021-07-21T17:30:08+02:00</time>
      </trkpt>
      <trkpt lat="47.41162" lon="-2.43536">
        <ele>2</ele>
        <time>2021-07-21T17:30:24+02:00</time>
      </trkpt>
      <trkpt lat="47.41185" lon="-2.43542">
        <ele>2</ele>
        <time>2021-07-21T17:30:42+02:00</time>
      </trkpt>
      <trkpt lat="47.41208" lon="-2.43539">
        <ele>2</ele>
        <time>2021-07-21T17:31:15+02:00</time>
      </trkpt>
      <trkpt lat="47.41226" lon="-2.43536">
        <ele>1</ele>
        <time>2021-07-21T17:31:32+02:00</time>
      </trkpt>
      <trkpt lat="47.41229" lon="-2.43489">
        <ele>2</ele>
        <time>2021-07-21T17:32:24+02:00</time>
      </trkpt>
      <trkpt lat="47.41227" lon="-2.43466">
        <ele>2.6</ele>
      </trkpt>
      <trkpt lat="47.4124" lon="-2.4346">
        <ele>2</ele>
        <time>2021-07-21T17:32:49+02:00</time>
      </trkpt>
      <trkpt lat="47.41263" lon="-2.43453">
        <ele>2</ele>
        <time>2021-07-21T17:33:10+02:00</time>
      </trkpt>
      <trkpt lat="47.41286" lon="-2.43453">
        <ele>2</ele>
        <time>2021-07-21T17:33:29+02:00</time>
      </trkpt>
      <trkpt lat="47.41308" lon="-2.43461">
        <ele>2</ele>
        <time>2021-07-21T17:33:48+02:00</time>
      </trkpt>
      <trkpt lat="47.4133" lon="-2.43466">
        <ele>2</ele>
        <time>2021-07-21T17:34:09+02:00</time>
      </trkpt>
      <trkpt lat="47.41353" lon="-2.43473">
        <ele>2</ele>
        <time>2021-07-21T17:34:59+02:00</time>
      </trkpt>
      <trkpt lat="47.41376" lon="-2.43479">
        <ele>2</ele>
        <time>2021-07-21T17:35:17+02:00</time>
      </trkpt>
      <trkpt lat="47.41387" lon="-2.43508">
        <ele>1</ele>
        <time>2021-07-21T17:36:11+02:00</time>
      </trkpt>
      <trkpt lat="47.41395" lon="-2.43539">
        <ele>2</ele>
        <time>2021-07-21T17:36:27+02:00</time>
      </trkpt>
      <trkpt lat="47.41395" lon="-2.43555">
        <ele>1</ele>
      </trkpt>
      <trkpt lat="47.41387" lon="-2.4357">
        <ele>2</ele>
        <time>2021-07-21T17:36:49+02:00</time>
      </trkpt>
      <trkpt lat="47.41374" lon="-2.43599">
        <ele>2</ele>
        <time>2021-07-21T17:37:11+02:00</time>
      </trkpt>
      <trkpt lat="47.41374" lon="-2.43633">
        <ele>3</ele>
        <time>2021-07-21T17:38:31+02:00</time>
      </trkpt>
      <trkpt lat="47.4138" lon="-2.43665">
        <ele>3</ele>
        <time>2021-07-21T17:38:49+02:00</time>
      </trkpt>
      <trkpt lat="47.41392" lon="-2.43694">
        <ele>3</ele>
        <time>2021-07-21T17:39:07+02:00</time>
      </trkpt>
      <trkpt lat="47.41396" lon="-2.43729">
        <ele>1</ele>
        <time>2021-07-21T17:39:26+02:00</time>
      </trkpt>
      <trkpt lat="47.41419" lon="-2.43715">
        <ele>3</ele>
        <time>2021-07-21T17:39:46+02:00</time>
      </trkpt>
      <trkpt lat="47.41428" lon="-2.43724">
        <ele>1</ele>
      </trkpt>
      <trkpt lat="47.41426" lon="-2.43747">
        <ele>2</ele>
        <time>2021-07-21T17:40:33+02:00</time>
      </trkpt>
      <trkpt lat="47.41422" lon="-2.43782">
        <ele>2</ele>
        <time>2021-07-21T17:40:50+02:00</time>
      </trkpt>
      <trkpt lat="47.41422" lon="-2.43799">
        <ele>1</ele>
      </trkpt>
      <trkpt lat="47.41415" lon="-2.43816">
        <ele>4</ele>
        <time>2021-07-21T17:41:09+02:00</time>
      </trkpt>
      <trkpt lat="47.41415" lon="-2.43849">
        <ele>4</ele>
        <time>2021-07-21T17:41:26+02:00</time>
      </trkpt>
      <trkpt lat="47.41418" lon="-2.43883">
        <ele>4</ele>
        <time>2021-07-21T17:41:43+02:00</time>
      </trkpt>
      <trkpt lat="47.41419" lon="-2.43916">
        <ele>4</ele>
        <time>2021-07-21T17:42:01+02:00</time>
      </trkpt>
      <trkpt lat="47.41418" lon="-2.4395">
        <ele>3</ele>
        <time>2021-07-21T17:42:18+02:00</time>
      </trkpt>
      <trkpt lat="47.41414" lon="-2.43984">
        <ele>3</ele>
        <time>2021-07-21T17:43:05+02:00</time>
      </trkpt>
      <trkpt lat="47.41407" lon="-2.44017">
        <ele>3</ele>
        <time>2021-07-21T17:43:23+02:00</time>
      </trkpt>
      <trkpt lat="47.41391" lon="-2.44042">
        <ele>3</ele>
        <time>2021-07-21T17:43:42+02:00</time>
      </trkpt>
      <trkpt lat="47.41376" lon="-2.44068">
        <ele>3</ele>
        <time>2021-07-21T17:43:58+02:00</time>
      </trkpt>
      <trkpt lat="47.41363" lon="-2.44083">
        <ele>2</ele>
      </trkpt>
      <trkpt lat="47.41353" lon="-2.4407">
        <ele>4</ele>
        <time>2021-07-21T17:44:18+02:00</time>
      </trkpt>
      <trkpt lat="47.41336" lon="-2.44047">
        <ele>3</ele>
        <time>2021-07-21T17:44:35+02:00</time>
      </trkpt>
      <trkpt lat="47.41317" lon="-2.44027">
        <ele>3</ele>
        <time>2021-07-21T17:44:54+02:00</time>
      </trkpt>
      <trkpt lat="47.41297" lon="-2.4401">
        <ele>3</ele>
        <time>2021-07-21T17:45:11+02:00</time>
      </trkpt>
      <trkpt lat="47.41274" lon="-2.44001">
        <ele>3</ele>
        <time>2021-07-21T17:45:29+02:00</time>
      </trkpt>
      <trkpt lat="47.41251" lon="-2.44005">
        <ele>3</ele>
        <time>2021-07-21T17:45:47+02:00</time>
      </trkpt>
      <trkpt lat="47.41229" lon="-2.44017">
        <ele>3</ele>
        <time>2021-07-21T17:46:03+02:00</time>
      </trkpt>
      <trkpt lat="47.41206" lon="-2.44033">
        <ele>1</ele>
        <time>2021-07-21T17:46:23+02:00</time>
      </trkpt>
      <trkpt lat="47.41189" lon="-2.44053">
        <ele>4</ele>
        <time>2021-07-21T17:46:42+02:00</time>
      </trkpt>
      <trkpt lat="47.4117" lon="-2.44073">
        <ele>3</ele>
        <time>2021-07-21T17:46:58+02:00</time>
      </trkpt>
      <trkpt lat="47.41152" lon="-2.44109">
        <ele>2</ele>
        <time>2021-07-21T17:47:16+02:00</time>
      </trkpt>
      <trkpt lat="47.41162" lon="-2.44134">
        <ele>2</ele>
        <time>2021-07-21T17:47:39+02:00</time>
      </trkpt>
      <trkpt lat="47.41179" lon="-2.44158">
        <ele>3</ele>
        <time>2021-07-21T17:48:01+02:00</time>
      </trkpt>
      <trkpt lat="47.41198" lon="-2.44179">
        <ele>4</ele>
        <time>2021-07-21T17:48:19+02:00</time>
      </trkpt>
      <trkpt lat="47.41215" lon="-2.44202">
        <ele>4</ele>
        <time>2021-07-21T17:48:37+02:00</time>
      </trkpt>
      <trkpt lat="47.41232" lon="-2.44226">
        <ele>4</ele>
        <time>2021-07-21T17:48:57+02:00</time>
      </trkpt>
      <trkpt lat="47.41261" lon="-2.44259">
        <ele>3</ele>
        <time>2021-07-21T17:49:52+02:00</time>
      </trkpt>
      <trkpt lat="47.41232" lon="-2.44225">
        <ele>4</ele>
        <time>2021-07-21T17:50:16+02:00</time>
      </trkpt>
      <trkpt lat="47.41215" lon="-2.44203">
        <ele>4</ele>
        <time>2021-07-21T17:50:31+02:00</time>
      </trkpt>
      <trkpt lat="47.41199" lon="-2.44179">
        <ele>4</ele>
        <time>2021-07-21T17:50:49+02:00</time>
      </trkpt>
      <trkpt lat="47.41179" lon="-2.44158">
        <ele>4</ele>
        <time>2021-07-21T17:51:06+02:00</time>
      </trkpt>
      <trkpt lat="47.41163" lon="-2.44135">
        <ele>3</ele>
        <time>2021-07-21T17:51:24+02:00</time>
      </trkpt>
      <trkpt lat="47.41152" lon="-2.44111">
        <ele>2</ele>
        <time>2021-07-21T17:51:54+02:00</time>
      </trkpt>
      <trkpt lat="47.41124" lon="-2.44161">
        <ele>2</ele>
        <time>2021-07-21T17:52:10+02:00</time>
      </trkpt>
      <trkpt lat="47.41109" lon="-2.44188">
        <ele>2</ele>
        <time>2021-07-21T17:52:28+02:00</time>
      </trkpt>
      <trkpt lat="47.41091" lon="-2.44208">
        <ele>2</ele>
        <time>2021-07-21T17:52:44+02:00</time>
      </trkpt>
      <trkpt lat="47.41068" lon="-2.44205">
        <ele>2</ele>
        <time>2021-07-21T17:53:01+02:00</time>
      </trkpt>
      <trkpt lat="47.41044" lon="-2.442">
        <ele>2</ele>
        <time>2021-07-21T17:53:21+02:00</time>
      </trkpt>
      <trkpt lat="47.41002" lon="-2.44201">
        <ele>3</ele>
        <time>2021-07-21T17:53:39+02:00</time>
      </trkpt>
      <trkpt lat="47.41001" lon="-2.44214">
        <ele>3</ele>
        <time>2021-07-21T17:53:57+02:00</time>
      </trkpt>
      <trkpt lat="47.40992" lon="-2.44245">
        <ele>3</ele>
        <time>2021-07-21T17:54:14+02:00</time>
      </trkpt>
      <trkpt lat="47.40976" lon="-2.44269">
        <ele>4</ele>
        <time>2021-07-21T17:54:44+02:00</time>
      </trkpt>
      <trkpt lat="47.40954" lon="-2.44284">
        <ele>4</ele>
        <time>2021-07-21T17:55:02+02:00</time>
      </trkpt>
      <trkpt lat="47.40933" lon="-2.44295">
        <ele>4</ele>
        <time>2021-07-21T17:55:18+02:00</time>
      </trkpt>
      <trkpt lat="47.40912" lon="-2.44311">
        <ele>3</ele>
        <time>2021-07-21T17:55:34+02:00</time>
      </trkpt>
      <trkpt lat="47.40889" lon="-2.44323">
        <ele>3</ele>
        <time>2021-07-21T17:55:53+02:00</time>
      </trkpt>
      <trkpt lat="47.40868" lon="-2.44336">
        <ele>3</ele>
        <time>2021-07-21T17:56:10+02:00</time>
      </trkpt>
      <trkpt lat="47.40847" lon="-2.44352">
        <ele>2</ele>
        <time>2021-07-21T17:56:27+02:00</time>
      </trkpt>
      <trkpt lat="47.40829" lon="-2.44371">
        <ele>2</ele>
        <time>2021-07-21T17:56:44+02:00</time>
      </trkpt>
      <trkpt lat="47.4081" lon="-2.4439">
        <ele>2</ele>
        <time>2021-07-21T17:57:02+02:00</time>
      </trkpt>
      <trkpt lat="47.4079" lon="-2.44407">
        <ele>3</ele>
        <time>2021-07-21T17:57:19+02:00</time>
      </trkpt>
      <trkpt lat="47.40771" lon="-2.44424">
        <ele>3</ele>
        <time>2021-07-21T17:57:37+02:00</time>
      </trkpt>
      <trkpt lat="47.40751" lon="-2.44441">
        <ele>4</ele>
        <time>2021-07-21T17:57:55+02:00</time>
      </trkpt>
      <trkpt lat="47.40737" lon="-2.44469">
        <ele>3</ele>
        <time>2021-07-21T17:58:12+02:00</time>
      </trkpt>
      <trkpt lat="47.40719" lon="-2.4449">
        <ele>3</ele>
        <time>2021-07-21T17:58:27+02:00</time>
      </trkpt>
      <trkpt lat="47.40701" lon="-2.44509">
        <ele>3</ele>
        <time>2021-07-21T17:58:42+02:00</time>
      </trkpt>
      <trkpt lat="47.40686" lon="-2.44536">
        <ele>3</ele>
        <time>2021-07-21T17:58:59+02:00</time>
      </trkpt>
      <trkpt lat="47.40674" lon="-2.44566">
        <ele>3</ele>
        <time>2021-07-21T17:59:15+02:00</time>
      </trkpt>
      <trkpt lat="47.40666" lon="-2.44598">
        <ele>3</ele>
        <time>2021-07-21T17:59:33+02:00</time>
      </trkpt>
      <trkpt lat="47.40677" lon="-2.44628">
        <ele>2</ele>
        <time>2021-07-21T17:59:51+02:00</time>
      </trkpt>
      <trkpt lat="47.40689" lon="-2.44658">
        <ele>2</ele>
        <time>2021-07-21T18:00:08+02:00</time>
      </trkpt>
      <trkpt lat="47.40692" lon="-2.44692">
        <ele>3</ele>
        <time>2021-07-21T18:00:26+02:00</time>
      </trkpt>
      <trkpt lat="47.40692" lon="-2.44725">
        <ele>3</ele>
        <time>2021-07-21T18:00:42+02:00</time>
      </trkpt>
      <trkpt lat="47.40685" lon="-2.44759">
        <ele>2</ele>
        <time>2021-07-21T18:01:00+02:00</time>
      </trkpt>
      <trkpt lat="47.40685" lon="-2.44786">
        <ele>4</ele>
        <time>2021-07-21T18:01:28+02:00</time>
      </trkpt>
      <trkpt lat="47.40728" lon="-2.44893">
        <ele>2</ele>
      </trkpt>
      <trkpt lat="47.40757" lon="-2.44969">
        <ele>2</ele>
      </trkpt>
      <trkpt lat="47.4078" lon="-2.44992">
        <ele>2</ele>
      </trkpt>
      <trkpt lat="47.40802" lon="-2.44997">
        <ele>2</ele>
      </trkpt>
      <trkpt lat="47.40832" lon="-2.44995">
        <ele>1</ele>
      </trkpt>
      <trkpt lat="47.40841" lon="-2.45015">
        <ele>1</ele>
      </trkpt>
      <trkpt lat="47.40848" lon="-2.4505">
        <ele>1</ele>
      </trkpt>
      <trkpt lat="47.4085" lon="-2.4509">
        <ele>1</ele>
      </trkpt>
      <trkpt lat="47.40845" lon="-2.45151">
        <ele>2.8</ele>
      </trkpt>
      <trkpt lat="47.40824" lon="-2.45299">
        <ele>2.9</ele>
      </trkpt>
      <trkpt lat="47.40824" lon="-2.45372">
        <ele>1</ele>
        <time>2021-07-21T18:01:45+02:00</time>
      </trkpt>
      <trkpt lat="47.40867" lon="-2.45487">
        <ele>1</ele>
      </trkpt>
      <trkpt lat="47.40918" lon="-2.45679">
        <ele>2</ele>
      </trkpt>
      <trkpt lat="47.40926" lon="-2.45713">
        <ele>1</ele>
      </trkpt>
      <trkpt lat="47.4092" lon="-2.45763">
        <ele>2.9</ele>
      </trkpt>
      <trkpt lat="47.4093" lon="-2.45858">
        <ele>2</ele>
      </trkpt>
      <trkpt lat="47.40933" lon="-2.45944">
        <ele>4</ele>
      </trkpt>
      <trkpt lat="47.40895" lon="-2.45972">
        <ele>5</ele>
        <time>2021-07-21T18:02:07+02:00</time>
      </trkpt>
      <trkpt lat="47.40918" lon="-2.45955">
        <ele>4</ele>
      </trkpt>
      <trkpt lat="47.40934" lon="-2.45942">
        <ele>4</ele>
      </trkpt>
      <trkpt lat="47.4093" lon="-2.45859">
        <ele>2</ele>
      </trkpt>
      <trkpt lat="47.40925" lon="-2.4581">
        <ele>1</ele>
      </trkpt>
      <trkpt lat="47.4092" lon="-2.45763">
        <ele>2.9</ele>
      </trkpt>
      <trkpt lat="47.40927" lon="-2.45714">
        <ele>1</ele>
      </trkpt>
      <trkpt lat="47.40918" lon="-2.45679">
        <ele>2</ele>
      </trkpt>
      <trkpt lat="47.40896" lon="-2.45684">
        <ele>2</ele>
      </trkpt>
      <trkpt lat="47.40884" lon="-2.45683">
        <ele>2</ele>
      </trkpt>
      <trkpt lat="47.40869" lon="-2.45695">
        <ele>2</ele>
      </trkpt>
      <trkpt lat="47.40854" lon="-2.45674">
        <ele>2</ele>
      </trkpt>
      <trkpt lat="47.40845" lon="-2.45663">
        <ele>2</ele>
      </trkpt>
      <trkpt lat="47.40833" lon="-2.45661">
        <ele>2</ele>
      </trkpt>
      <trkpt lat="47.40821" lon="-2.45665">
        <ele>2</ele>
      </trkpt>
      <trkpt lat="47.40805" lon="-2.45677">
        <ele>2</ele>
      </trkpt>
      <trkpt lat="47.40796" lon="-2.45683">
        <ele>2</ele>
      </trkpt>
      <trkpt lat="47.40775" lon="-2.45691">
        <ele>2</ele>
      </trkpt>
      <trkpt lat="47.40768" lon="-2.45679">
        <ele>3</ele>
      </trkpt>
      <trkpt lat="47.40758" lon="-2.45661">
        <ele>3</ele>
        <time>2021-07-21T18:02:25+02:00</time>
      </trkpt>
      <trkpt lat="47.40559" lon="-2.45335">
        <ele>10</ele>
        <time>2021-07-21T18:02:43+02:00</time>
      </trkpt>
      <trkpt lat="47.40537" lon="-2.45263">
        <ele>12</ele>
        <time>2021-07-21T18:03:00+02:00</time>
      </trkpt>
      <trkpt lat="47.40526" lon="-2.45256">
        <ele>12</ele>
      </trkpt>
      <trkpt lat="47.40486" lon="-2.45294">
        <ele>11</ele>
      </trkpt>
      <trkpt lat="47.40473" lon="-2.45289">
        <ele>12</ele>
        <time>2021-07-21T18:03:19+02:00</time>
      </trkpt>
      <trkpt lat="47.40424" lon="-2.45157">
        <ele>15</ele>
        <time>2021-07-21T18:03:39+02:00</time>
      </trkpt>
      <trkpt lat="47.40541" lon="-2.45056">
        <ele>10</ele>
        <time>2021-07-21T18:03:56+02:00</time>
      </trkpt>
      <trkpt lat="47.40514" lon="-2.44957">
        <ele>10</ele>
      </trkpt>
      <trkpt lat="47.40485" lon="-2.44878">
        <ele>9</ele>
        <time>2021-07-21T18:04:17+02:00</time>
      </trkpt>
      <trkpt lat="47.40468" lon="-2.44855">
        <ele>12</ele>
        <time>2021-07-21T18:04:36+02:00</time>
      </trkpt>
      <trkpt lat="47.40454" lon="-2.44828">
        <ele>10</ele>
        <time>2021-07-21T18:04:50+02:00</time>
      </trkpt>
      <trkpt lat="47.40435" lon="-2.44792">
        <ele>12</ele>
        <time>2021-07-21T18:05:09+02:00</time>
      </trkpt>
      <trkpt lat="47.40449" lon="-2.44768">
        <ele>11</ele>
        <time>2021-07-21T18:05:26+02:00</time>
      </trkpt>
      <trkpt lat="47.40467" lon="-2.44748">
        <ele>10</ele>
        <time>2021-07-21T18:05:43+02:00</time>
      </trkpt>
      <trkpt lat="47.40484" lon="-2.44723">
        <ele>10</ele>
        <time>2021-07-21T18:06:02+02:00</time>
      </trkpt>
      <trkpt lat="47.40501" lon="-2.44699">
        <ele>10</ele>
        <time>2021-07-21T18:06:18+02:00</time>
      </trkpt>
      <trkpt lat="47.40515" lon="-2.44673">
        <ele>9</ele>
        <time>2021-07-21T18:06:36+02:00</time>
      </trkpt>
      <trkpt lat="47.40509" lon="-2.44657">
        <ele>10</ele>
        <time>2021-07-21T18:06:52+02:00</time>
      </trkpt>
      <trkpt lat="47.40491" lon="-2.44623">
        <ele>9</ele>
        <time>2021-07-21T18:07:12+02:00</time>
      </trkpt>
      <trkpt lat="47.40476" lon="-2.44613">
        <ele>9</ele>
        <time>2021-07-21T17:03:12+02:00</time>
      </trkpt>
      <trkpt lat="47.40459" lon="-2.44581">
        <ele>10</ele>
        <time>2021-07-21T17:03:59+02:00</time>
      </trkpt>
      <trkpt lat="47.40445" lon="-2.44568">
        <ele>9</ele>
      </trkpt>
      <trkpt lat="47.40442" lon="-2.44552">
        <ele>9</ele>
        <time>2021-07-21T17:04:18+02:00</time>
      </trkpt>
      <trkpt lat="47.40432" lon="-2.44526">
        <ele>8</ele>
        <time>2021-07-21T17:04:37+02:00</time>
      </trkpt>
      <trkpt lat="47.40415" lon="-2.44502">
        <ele>7</ele>
        <time>2021-07-21T17:04:55+02:00</time>
      </trkpt>
      <trkpt lat="47.40399" lon="-2.44479">
        <ele>5</ele>
        <time>2021-07-21T17:05:11+02:00</time>
      </trkpt>
      <trkpt lat="47.40379" lon="-2.44461">
        <ele>4</ele>
        <time>2021-07-21T17:05:30+02:00</time>
      </trkpt>
      <trkpt lat="47.40371" lon="-2.44429">
        <ele>3</ele>
        <time>2021-07-21T17:05:53+02:00</time>
      </trkpt>
      <trkpt lat="47.40391" lon="-2.44406">
        <ele>4</ele>
        <time>2021-07-21T17:06:10+02:00</time>
      </trkpt>
      <trkpt lat="47.40401" lon="-2.44379">
        <ele>3</ele>
        <time>2021-07-21T17:06:29+02:00</time>
      </trkpt>
      <trkpt lat="47.40416" lon="-2.44352">
        <ele>3</ele>
        <time>2021-07-21T17:06:48+02:00</time>
      </trkpt>
      <trkpt lat="47.40431" lon="-2.44325">
        <ele>3</ele>
        <time>2021-07-21T17:07:10+02:00</time>
      </trkpt>
      <trkpt lat="47.4044" lon="-2.44295">
        <ele>3</ele>
        <time>2021-07-21T17:07:30+02:00</time>
      </trkpt>
      <trkpt lat="47.40452" lon="-2.44264">
        <ele>4</ele>
        <time>2021-07-21T17:07:51+02:00</time>
      </trkpt>
      <trkpt lat="47.40466" lon="-2.44238">
        <ele>3</ele>
        <time>2021-07-21T17:08:06+02:00</time>
      </trkpt>
      <trkpt lat="47.40482" lon="-2.44214">
        <ele>3</ele>
        <time>2021-07-21T17:08:21+02:00</time>
      </trkpt>
      <trkpt lat="47.40499" lon="-2.44191">
        <ele>4</ele>
        <time>2021-07-21T17:08:40+02:00</time>
      </trkpt>
      <trkpt lat="47.40517" lon="-2.4417">
        <ele>4</ele>
        <time>2021-07-21T17:08:59+02:00</time>
      </trkpt>
      <trkpt lat="47.40524" lon="-2.44138">
        <ele>4</ele>
        <time>2021-07-21T17:09:22+02:00</time>
      </trkpt>
      <trkpt lat="47.40529" lon="-2.44105">
        <ele>4</ele>
        <time>2021-07-21T17:09:38+02:00</time>
      </trkpt>
      <trkpt lat="47.40537" lon="-2.44074">
        <ele>3</ele>
        <time>2021-07-21T17:09:55+02:00</time>
      </trkpt>
      <trkpt lat="47.40554" lon="-2.44051">
        <ele>3</ele>
        <time>2021-07-21T17:10:14+02:00</time>
      </trkpt>
      <trkpt lat="47.40565" lon="-2.44021">
        <ele>3</ele>
        <time>2021-07-21T17:10:32+02:00</time>
      </trkpt>
      <trkpt lat="47.40582" lon="-2.43997">
        <ele>3</ele>
        <time>2021-07-21T17:10:49+02:00</time>
      </trkpt>
      <trkpt lat="47.40601" lon="-2.43979">
        <ele>4</ele>
        <time>2021-07-21T17:11:09+02:00</time>
      </trkpt>
      <trkpt lat="47.40622" lon="-2.43967">
        <ele>5</ele>
        <time>2021-07-21T17:11:25+02:00</time>
      </trkpt>
      <trkpt lat="47.40645" lon="-2.43966">
        <ele>5</ele>
        <time>2021-07-21T17:11:47+02:00</time>
      </trkpt>
      <trkpt lat="47.40666" lon="-2.43952">
        <ele>5</ele>
        <time>2021-07-21T17:12:04+02:00</time>
      </trkpt>
      <trkpt lat="47.40685" lon="-2.43932">
        <ele>4</ele>
        <time>2021-07-21T17:12:22+02:00</time>
      </trkpt>
      <trkpt lat="47.40706" lon="-2.43948">
        <ele>4</ele>
        <time>2021-07-21T17:12:40+02:00</time>
      </trkpt>
      <trkpt lat="47.40716" lon="-2.43979">
        <ele>3</ele>
        <time>2021-07-21T17:12:57+02:00</time>
      </trkpt>
      <trkpt lat="47.4072" lon="-2.44014">
        <ele>4</ele>
        <time>2021-07-21T17:13:14+02:00</time>
      </trkpt>
      <trkpt lat="47.40726" lon="-2.44046">
        <ele>4</ele>
        <time>2021-07-21T17:13:39+02:00</time>
      </trkpt>
      <trkpt lat="47.40739" lon="-2.44069">
        <ele>3</ele>
        <time>2021-07-21T17:13:58+02:00</time>
      </trkpt>
      <trkpt lat="47.40744" lon="-2.44105">
        <ele>3</ele>
        <time>2021-07-21T17:14:14+02:00</time>
      </trkpt>
      <trkpt lat="47.40749" lon="-2.44144">
        <ele>4</ele>
        <time>2021-07-21T17:14:32+02:00</time>
      </trkpt>
      <trkpt lat="47.40757" lon="-2.44182">
        <ele>4</ele>
        <time>2021-07-21T17:14:47+02:00</time>
      </trkpt>
      <trkpt lat="47.40757" lon="-2.4421">
        <ele>4</ele>
        <time>2021-07-21T17:15:04+02:00</time>
      </trkpt>
      <trkpt lat="47.40764" lon="-2.4423">
        <ele>4</ele>
      </trkpt>
      <trkpt lat="47.40778" lon="-2.44221">
        <ele>5</ele>
        <time>2021-07-21T17:15:46+02:00</time>
      </trkpt>
      <trkpt lat="47.40799" lon="-2.44209">
        <ele>3</ele>
        <time>2021-07-21T17:16:04+02:00</time>
      </trkpt>
      <trkpt lat="47.40821" lon="-2.44198">
        <ele>3</ele>
        <time>2021-07-21T17:16:20+02:00</time>
      </trkpt>
      <trkpt lat="47.40843" lon="-2.44189">
        <ele>3</ele>
        <time>2021-07-21T17:16:35+02:00</time>
      </trkpt>
      <trkpt lat="47.40866" lon="-2.4418">
        <ele>3</ele>
        <time>2021-07-21T17:16:52+02:00</time>
      </trkpt>
      <trkpt lat="47.40887" lon="-2.44169">
        <ele>3</ele>
        <time>2021-07-21T17:17:08+02:00</time>
      </trkpt>
      <trkpt lat="47.40909" lon="-2.44163">
        <ele>3</ele>
        <time>2021-07-21T17:17:26+02:00</time>
      </trkpt>
      <trkpt lat="47.40933" lon="-2.44161">
        <ele>3</ele>
        <time>2021-07-21T17:17:45+02:00</time>
      </trkpt>
      <trkpt lat="47.40956" lon="-2.44171">
        <ele>4</ele>
        <time>2021-07-21T17:18:07+02:00</time>
      </trkpt>
      <trkpt lat="47.40976" lon="-2.4419">
        <ele>4</ele>
        <time>2021-07-21T17:18:36+02:00</time>
      </trkpt>
      <trkpt lat="47.40988" lon="-2.44196">
        <ele>3</ele>
        <time>2021-07-21T17:19:01+02:00</time>
      </trkpt>
    </trkseg>
  </trk>
</gpx>